createdAt,value
2022-07-30T00:00:27.545Z,99.90
2022-07-30T00:02:55.464Z,99.90
2022-07-30T00:05:23.699Z,99.90
2022-07-30T00:07:51.795Z,99.90
2022-07-30T00:10:20.583Z,99.90
2022-07-30T00:12:49.004Z,99.90
2022-07-30T00:15:16.882Z,99.90
2022-07-30T00:17:46.734Z,99.90
2022-07-30T00:20:17.139Z,99.90
2022-07-30T00:22:46.619Z,99.90
2022-07-30T00:25:14.873Z,99.90
2022-07-30T00:27:44.270Z,99.90
2022-07-30T00:30:13.136Z,99.90
2022-07-30T00:32:41.097Z,99.90
2022-07-30T00:35:11.840Z,99.90
2022-07-30T00:37:39.999Z,99.90
2022-07-30T00:40:09.550Z,99.90
2022-07-30T00:42:41.888Z,99.90
2022-07-30T00:45:11.536Z,99.90
2022-07-30T00:47:39.943Z,99.90
2022-07-30T00:50:11.725Z,99.90
2022-07-30T00:52:40.226Z,99.90
2022-07-30T00:55:10.212Z,99.90
2022-07-30T00:57:39.336Z,99.90
2022-07-30T01:00:10.127Z,99.90
2022-07-30T01:02:38.123Z,99.90
2022-07-30T01:05:07.735Z,99.90
2022-07-30T01:07:37.261Z,99.90
2022-07-30T01:10:06.269Z,99.90
2022-07-30T01:12:34.827Z,99.90
2022-07-30T01:15:05.948Z,99.90
2022-07-30T01:17:34.865Z,99.90
2022-07-30T01:20:05.016Z,99.90
2022-07-30T01:22:46.590Z,99.90
2022-07-30T01:25:21.839Z,99.90
2022-07-30T01:27:56.075Z,99.90
2022-07-30T01:30:27.572Z,99.90
2022-07-30T01:32:58.076Z,99.90
2022-07-30T01:35:27.657Z,99.90
2022-07-30T01:37:58.751Z,99.90
2022-07-30T01:40:28.973Z,99.90
2022-07-30T01:42:59.991Z,99.90
2022-07-30T01:45:30.481Z,99.90
2022-07-30T01:48:05.222Z,99.90
2022-07-30T01:50:34.742Z,99.90
2022-07-30T01:53:04.031Z,99.90
2022-07-30T01:55:35.062Z,99.90
2022-07-30T01:58:06.651Z,99.90
2022-07-30T02:00:39.095Z,99.90
2022-07-30T02:03:08.886Z,99.90
2022-07-30T02:05:38.282Z,99.90
2022-07-30T02:08:12.161Z,99.90
2022-07-30T02:10:45.007Z,99.90
2022-07-30T02:13:18.667Z,99.90
2022-07-30T02:15:53.543Z,99.90
2022-07-30T02:18:29.027Z,99.90
2022-07-30T02:21:02.543Z,99.90
2022-07-30T02:23:39.571Z,99.90
2022-07-30T02:26:09.945Z,99.90
2022-07-30T02:28:41.032Z,99.90
2022-07-30T02:31:10.867Z,99.90
2022-07-30T02:33:49.758Z,99.90
2022-07-30T02:36:19.664Z,99.90
2022-07-30T02:38:51.324Z,99.90
2022-07-30T02:41:21.003Z,99.90
2022-07-30T02:43:52.070Z,99.90
2022-07-30T02:46:20.832Z,99.90
2022-07-30T02:48:51.173Z,99.90
2022-07-30T02:51:20.859Z,99.90
2022-07-30T02:53:52.018Z,99.90
2022-07-30T02:56:22.190Z,99.90
2022-07-30T02:58:54.190Z,99.90
2022-07-30T03:01:24.061Z,99.90
2022-07-30T03:03:53.784Z,99.90
2022-07-30T03:06:25.462Z,99.90
2022-07-30T03:08:54.911Z,99.90
2022-07-30T03:11:24.947Z,99.90
2022-07-30T03:13:54.254Z,99.90
2022-07-30T03:16:24.247Z,99.90
2022-07-30T03:18:55.409Z,99.90
2022-07-30T03:21:27.738Z,99.90
2022-07-30T03:23:57.775Z,99.90
2022-07-30T03:26:26.246Z,99.90
2022-07-30T03:28:55.875Z,99.90
2022-07-30T03:31:24.092Z,99.90
2022-07-30T03:33:56.595Z,99.90
2022-07-30T03:36:24.987Z,99.90
2022-07-30T03:38:53.713Z,99.90
2022-07-30T03:41:23.666Z,99.90
2022-07-30T03:43:52.320Z,99.90
2022-07-30T03:46:23.157Z,99.90
2022-07-30T03:48:51.897Z,99.90
2022-07-30T03:51:20.030Z,99.90
2022-07-30T03:53:48.965Z,99.90
2022-07-30T03:56:17.594Z,99.90
2022-07-30T03:58:45.507Z,99.90
2022-07-30T04:01:13.456Z,99.90
2022-07-30T04:03:42.840Z,99.90
2022-07-30T04:06:10.763Z,99.90
2022-07-30T04:08:38.662Z,99.90
2022-07-30T04:11:06.546Z,99.90
2022-07-30T04:13:34.446Z,99.90
2022-07-30T04:16:39.447Z,99.90
2022-07-30T04:18:59.751Z,99.90
2022-07-30T04:21:28.763Z,99.90
2022-07-30T04:24:04.558Z,99.90
2022-07-30T04:26:34.825Z,99.90
2022-07-30T04:29:05.146Z,99.90
2022-07-30T04:31:40.028Z,99.90
2022-07-30T04:34:14.415Z,99.90
2022-07-30T04:36:42.978Z,99.90
2022-07-30T04:39:11.316Z,99.90
2022-07-30T04:41:49.035Z,99.90
2022-07-30T04:44:18.712Z,99.90
2022-07-30T04:46:46.815Z,99.90
2022-07-30T04:49:18.275Z,99.90
2022-07-30T04:51:47.484Z,99.90
2022-07-30T04:54:16.280Z,99.90
2022-07-30T04:56:53.536Z,99.90
2022-07-30T04:59:24.747Z,99.90
2022-07-30T05:01:54.280Z,99.90
2022-07-30T05:04:24.889Z,99.90
2022-07-30T05:06:53.686Z,99.90
2022-07-30T05:09:22.346Z,99.90
2022-07-30T05:11:54.657Z,99.90
2022-07-30T05:14:22.973Z,99.90
2022-07-30T05:16:51.196Z,99.90
2022-07-30T05:19:19.592Z,99.90
2022-07-30T05:21:48.906Z,99.90
2022-07-30T05:24:16.839Z,99.90
2022-07-30T05:26:45.269Z,99.90
2022-07-30T05:29:17.279Z,99.90
2022-07-30T05:31:48.472Z,99.90
2022-07-30T05:34:16.456Z,99.90
2022-07-30T05:36:45.311Z,99.90
2022-07-30T05:39:16.249Z,99.90
2022-07-30T05:41:44.175Z,99.90
2022-07-30T05:44:12.646Z,99.90
2022-07-30T05:46:40.716Z,99.90
2022-07-30T05:49:09.028Z,99.90
2022-07-30T05:51:37.035Z,99.90
2022-07-30T05:54:05.162Z,99.90
2022-07-30T05:56:35.953Z,99.90
2022-07-30T05:59:03.922Z,99.90
2022-07-30T06:01:31.937Z,99.90
2022-07-30T06:03:59.886Z,99.90
2022-07-30T06:06:27.803Z,99.90
2022-07-30T06:08:55.723Z,99.90
2022-07-30T06:11:23.983Z,99.90
2022-07-30T06:13:53.216Z,99.90
2022-07-30T06:16:21.131Z,99.90
2022-07-30T06:18:49.105Z,99.90
2022-07-30T06:21:16.999Z,99.90
2022-07-30T06:23:44.908Z,99.90
2022-07-30T06:26:12.839Z,99.90
2022-07-30T06:28:40.711Z,99.90
2022-07-30T06:31:10.055Z,99.90
2022-07-30T06:33:38.041Z,99.90
2022-07-30T06:36:06.196Z,99.90
2022-07-30T06:38:34.447Z,99.90
2022-07-30T06:41:04.425Z,99.90
2022-07-30T06:43:32.760Z,99.90
2022-07-30T06:46:00.951Z,99.90
2022-07-30T06:48:31.640Z,99.90
2022-07-30T06:50:59.556Z,99.90
2022-07-30T06:53:27.526Z,99.90
2022-07-30T06:56:00.163Z,99.90
2022-07-30T06:58:29.187Z,99.90
2022-07-30T07:00:57.321Z,99.90
2022-07-30T07:03:26.235Z,99.90
2022-07-30T07:06:09.449Z,99.90
2022-07-30T07:08:38.142Z,99.90
2022-07-30T07:11:06.022Z,99.90
2022-07-30T07:13:34.000Z,99.90
2022-07-30T07:16:01.968Z,99.90
2022-07-30T07:18:29.928Z,99.90
2022-07-30T07:20:57.858Z,99.90
2022-07-30T07:23:41.722Z,99.90
2022-07-30T07:26:10.543Z,99.90
2022-07-30T07:28:39.962Z,99.90
2022-07-30T07:31:08.115Z,99.90
2022-07-30T07:33:36.074Z,99.90
2022-07-30T07:36:04.110Z,99.90
2022-07-30T07:38:34.168Z,99.90
2022-07-30T07:41:02.074Z,99.90
2022-07-30T07:43:29.976Z,73.60
2022-07-30T07:45:58.271Z,91.20
2022-07-30T07:48:26.185Z,63.10
2022-07-30T07:50:58.283Z,93.40
2022-07-30T07:53:28.692Z,94.50
2022-07-30T07:55:58.639Z,1.00
2022-07-30T07:58:26.885Z,5.90
2022-07-30T08:00:55.087Z,1.00
2022-07-30T08:03:23.055Z,1.00
2022-07-30T08:05:55.895Z,1.00
2022-07-30T08:08:30.863Z,1.00
2022-07-30T08:11:00.091Z,1.00
2022-07-30T08:13:49.001Z,1.00
2022-07-30T08:16:15.870Z,1.00
2022-07-30T08:18:43.902Z,1.00
2022-07-30T08:21:11.785Z,1.00
2022-07-30T08:23:42.470Z,1.00
2022-07-30T08:26:11.886Z,99.90
2022-07-30T08:28:39.982Z,99.90
2022-07-30T08:31:10.975Z,99.90
2022-07-30T08:33:38.855Z,95.50
2022-07-30T08:36:09.604Z,99.90
2022-07-30T08:38:38.577Z,99.90
2022-07-30T08:41:07.419Z,99.90
2022-07-30T08:43:37.395Z,1.00
2022-07-30T08:46:09.772Z,1.00
2022-07-30T08:48:38.054Z,1.00
2022-07-30T08:51:06.386Z,99.90
2022-07-30T08:53:35.065Z,1.00
2022-07-30T08:56:03.131Z,4.80
2022-07-30T08:58:34.955Z,1.00
2022-07-30T09:01:05.435Z,6.90
2022-07-30T09:03:33.996Z,99.90
2022-07-30T09:06:02.936Z,1.00
2022-07-30T09:08:31.123Z,1.00
2022-07-30T09:10:59.399Z,1.00
2022-07-30T09:13:29.297Z,99.90
2022-07-30T09:15:57.765Z,1.00
2022-07-30T09:18:34.890Z,1.00
2022-07-30T09:21:15.017Z,1.00
2022-07-30T09:23:55.575Z,1.00
2022-07-30T09:26:23.475Z,1.00
2022-07-30T09:28:51.496Z,1.00
2022-07-30T09:31:20.435Z,99.90
2022-07-30T09:33:49.770Z,1.00
2022-07-30T09:36:18.821Z,1.00
2022-07-30T09:38:48.775Z,1.00
2022-07-30T09:41:37.753Z,1.00
2022-07-30T09:44:07.196Z,99.90
2022-07-30T09:46:47.298Z,99.90
2022-07-30T09:49:17.812Z,99.90
2022-07-30T09:52:05.265Z,1.00
2022-07-30T09:54:51.103Z,99.90
2022-07-30T09:57:26.709Z,1.00
2022-07-30T09:59:56.943Z,99.90
2022-07-30T10:02:32.012Z,1.00
2022-07-30T10:05:14.515Z,1.00
2022-07-30T10:07:51.212Z,1.00
2022-07-30T10:10:21.748Z,1.00
2022-07-30T10:12:58.945Z,99.90
2022-07-30T10:15:30.526Z,1.00
2022-07-30T10:18:01.608Z,1.00
2022-07-30T10:20:31.215Z,91.90
2022-07-30T10:23:00.178Z,1.00
2022-07-30T10:25:28.470Z,99.90
2022-07-30T10:27:57.659Z,99.90
2022-07-30T10:30:27.738Z,1.00
2022-07-30T10:32:58.150Z,1.00
2022-07-30T10:35:34.360Z,1.00
2022-07-30T10:38:13.682Z,1.00
2022-07-30T10:40:49.575Z,1.00
2022-07-30T10:43:41.294Z,99.90
2022-07-30T10:46:20.156Z,1.00
2022-07-30T10:48:51.003Z,99.90
2022-07-30T10:51:25.305Z,99.90
2022-07-30T10:54:03.997Z,1.00
2022-07-30T10:56:31.935Z,1.00
2022-07-30T10:59:03.335Z,99.90
2022-07-30T11:02:08.843Z,99.90
2022-07-30T11:04:37.015Z,99.90
2022-07-30T11:07:29.273Z,99.90
2022-07-30T11:10:05.798Z,99.90
2022-07-30T11:12:54.871Z,1.00
2022-07-30T11:15:23.502Z,99.90
2022-07-30T11:18:03.082Z,99.90
2022-07-30T11:20:33.967Z,99.90
2022-07-30T11:23:42.842Z,99.90
2022-07-30T11:26:14.388Z,99.90
2022-07-30T11:28:44.754Z,99.90
2022-07-30T11:31:55.007Z,99.90
2022-07-30T11:34:31.032Z,99.90
2022-07-30T11:37:21.562Z,99.90
2022-07-30T11:40:10.929Z,99.90
2022-07-30T11:42:42.496Z,99.90
2022-07-30T11:45:33.080Z,99.90
2022-07-30T11:48:01.342Z,99.90
2022-07-30T11:50:32.290Z,99.90
2022-07-30T11:53:02.554Z,99.90
2022-07-30T11:55:33.409Z,99.90
2022-07-30T11:58:05.826Z,99.90
2022-07-30T12:00:36.507Z,99.90
2022-07-30T12:03:12.753Z,99.90
2022-07-30T12:05:40.941Z,99.90
2022-07-30T12:08:16.283Z,99.90
2022-07-30T12:10:59.588Z,99.90
2022-07-30T12:13:44.916Z,99.90
2022-07-30T12:16:15.881Z,99.90
2022-07-30T12:18:44.013Z,99.90
2022-07-30T12:21:13.703Z,99.90
2022-07-30T12:23:43.219Z,99.90
2022-07-30T12:26:21.541Z,99.90
2022-07-30T12:28:51.139Z,99.90
2022-07-30T12:31:19.596Z,99.90
2022-07-30T12:33:47.622Z,99.90
2022-07-30T12:36:26.817Z,99.90
2022-07-30T12:38:54.789Z,99.90
2022-07-30T12:41:23.358Z,99.90
2022-07-30T12:43:55.109Z,99.90
2022-07-30T12:46:25.300Z,99.90
2022-07-30T12:48:55.300Z,99.90
2022-07-30T12:51:25.171Z,99.90
2022-07-30T12:53:55.355Z,99.90
2022-07-30T12:56:25.422Z,99.90
2022-07-30T12:58:55.888Z,99.90
2022-07-30T13:01:41.916Z,99.90
2022-07-30T13:04:10.523Z,99.90
2022-07-30T13:06:40.382Z,99.90
2022-07-30T13:09:08.429Z,99.90
2022-07-30T13:11:41.253Z,99.90
2022-07-30T13:14:12.379Z,99.90
2022-07-30T13:16:41.755Z,99.90
2022-07-30T13:19:12.009Z,99.90
2022-07-30T13:21:40.515Z,99.90
2022-07-30T13:24:18.029Z,99.90
2022-07-30T13:26:46.743Z,99.90
2022-07-30T13:29:16.063Z,99.90
2022-07-30T13:31:44.223Z,99.90
2022-07-30T13:34:13.363Z,99.90
2022-07-30T13:36:41.681Z,99.90
2022-07-30T13:39:09.570Z,99.90
2022-07-30T13:41:37.502Z,99.90
2022-07-30T13:44:05.843Z,99.90
2022-07-30T13:46:35.149Z,99.90
2022-07-30T13:49:03.340Z,99.90
2022-07-30T13:51:31.362Z,99.90
2022-07-30T13:53:59.255Z,99.90
2022-07-30T13:56:27.137Z,99.90
2022-07-30T13:58:55.391Z,99.90
2022-07-30T14:01:23.358Z,99.90
2022-07-30T14:03:52.623Z,93.50
2022-07-30T14:06:20.654Z,99.90
2022-07-30T14:08:48.610Z,99.90
2022-07-30T14:11:17.778Z,99.60
2022-07-30T14:13:45.860Z,99.90
2022-07-30T14:16:28.845Z,93.10
2022-07-30T14:19:03.294Z,99.90
2022-07-30T14:21:31.179Z,99.90
2022-07-30T14:23:59.126Z,99.90
2022-07-30T14:26:30.047Z,99.90
2022-07-30T14:29:05.110Z,99.90
2022-07-30T14:31:33.143Z,99.90
2022-07-30T14:34:01.109Z,99.90
2022-07-30T14:36:30.771Z,99.90
2022-07-30T14:39:00.059Z,99.90
2022-07-30T14:41:28.249Z,99.90
2022-07-30T14:43:56.171Z,99.90
2022-07-30T14:46:24.141Z,99.90
2022-07-30T14:48:52.096Z,99.90
2022-07-30T14:51:25.681Z,99.90
2022-07-30T14:53:56.015Z,99.90
2022-07-30T14:56:25.050Z,99.90
2022-07-30T14:58:54.154Z,99.90
2022-07-30T15:01:22.332Z,99.90
2022-07-30T15:03:50.450Z,99.90
2022-07-30T15:06:18.438Z,99.90
2022-07-30T15:08:46.659Z,99.90
2022-07-30T15:11:16.035Z,99.90
2022-07-30T15:13:50.298Z,99.90
2022-07-30T15:16:19.500Z,99.90
2022-07-30T15:18:47.580Z,99.90
2022-07-30T15:21:15.884Z,99.90
2022-07-30T15:23:43.931Z,99.90
2022-07-30T15:26:11.901Z,99.90
2022-07-30T15:28:41.146Z,99.90
2022-07-30T15:31:09.138Z,99.90
2022-07-30T15:33:41.791Z,99.90
2022-07-30T15:36:11.060Z,99.90
2022-07-30T15:38:39.655Z,99.90
2022-07-30T15:41:11.623Z,99.90
2022-07-30T15:43:42.656Z,99.90
2022-07-30T15:46:10.550Z,99.90
2022-07-30T15:48:38.730Z,99.90
2022-07-30T15:51:06.772Z,99.90
2022-07-30T15:53:34.914Z,99.90
2022-07-30T15:56:02.814Z,99.90
2022-07-30T15:58:30.875Z,99.90
2022-07-30T16:01:00.259Z,99.90
2022-07-30T16:03:28.198Z,99.90
2022-07-30T16:05:56.113Z,99.90
2022-07-30T16:08:24.039Z,99.90
2022-07-30T16:10:52.137Z,99.90
2022-07-30T16:13:20.227Z,99.90
2022-07-30T16:15:48.216Z,99.90
2022-07-30T16:18:17.499Z,99.90
2022-07-30T16:20:45.382Z,99.90
2022-07-30T16:23:16.001Z,99.90
2022-07-30T16:25:47.431Z,99.90
2022-07-30T16:28:15.355Z,99.90
2022-07-30T16:30:50.960Z,99.90
2022-07-30T16:33:21.325Z,99.90
2022-07-30T16:35:51.237Z,99.90
2022-07-30T16:38:19.747Z,99.90
2022-07-30T16:40:47.877Z,99.90
2022-07-30T16:43:16.276Z,99.90
2022-07-30T16:45:47.698Z,99.90
2022-07-30T16:48:15.930Z,99.90
2022-07-30T16:50:46.092Z,99.90
2022-07-30T16:53:14.749Z,99.90
2022-07-30T16:55:43.004Z,99.90
2022-07-30T16:58:10.977Z,99.90
2022-07-30T17:00:39.262Z,99.90
2022-07-30T17:03:07.578Z,99.90
2022-07-30T17:05:35.799Z,99.90
2022-07-30T17:08:07.439Z,99.90
2022-07-30T17:10:36.389Z,99.90
2022-07-30T17:13:04.474Z,99.90
2022-07-30T17:15:33.316Z,99.90
2022-07-30T17:18:01.506Z,99.90
2022-07-30T17:20:29.884Z,99.90
2022-07-30T17:22:57.839Z,99.90
2022-07-30T17:25:28.184Z,99.90
2022-07-30T17:27:56.735Z,99.90
2022-07-30T17:30:24.866Z,99.90
2022-07-30T17:32:52.930Z,99.90
2022-07-30T17:35:20.975Z,99.90
2022-07-30T17:37:48.886Z,99.90
2022-07-30T17:40:28.824Z,99.90
2022-07-30T17:43:04.573Z,99.90
2022-07-30T17:45:33.441Z,99.90
2022-07-30T17:48:02.327Z,99.90
2022-07-30T17:50:30.752Z,99.90
2022-07-30T17:52:58.891Z,1.00
2022-07-30T17:55:28.994Z,1.00
2022-07-30T17:57:56.989Z,99.90
2022-07-30T18:00:26.292Z,99.90
2022-07-30T18:02:54.207Z,99.90
2022-07-30T18:05:22.099Z,1.00
2022-07-30T18:07:49.977Z,1.00
2022-07-30T18:10:17.978Z,1.00
2022-07-30T18:12:49.108Z,99.90
2022-07-30T18:15:17.844Z,99.90
2022-07-30T18:17:47.374Z,99.90
2022-07-30T18:20:15.517Z,99.90
2022-07-30T18:22:43.534Z,99.90
2022-07-30T18:25:17.861Z,99.90
2022-07-30T18:27:46.695Z,99.90
2022-07-30T18:30:14.896Z,99.90
2022-07-30T18:32:42.853Z,99.90
2022-07-30T18:35:14.716Z,99.90
2022-07-30T18:37:43.884Z,99.90
2022-07-30T18:40:13.735Z,1.00
2022-07-30T18:42:41.868Z,1.00
2022-07-30T18:45:13.746Z,1.00
2022-07-30T18:47:41.985Z,1.00
2022-07-30T18:50:12.101Z,99.90
2022-07-30T18:52:40.208Z,99.90
2022-07-30T18:55:11.188Z,1.00
2022-07-30T18:57:39.347Z,1.00
2022-07-30T19:00:09.705Z,1.00
2022-07-30T19:02:38.250Z,1.00
2022-07-30T19:05:07.980Z,1.00
2022-07-30T19:07:55.632Z,1.00
2022-07-30T19:10:26.912Z,1.00
2022-07-30T19:12:55.567Z,1.00
2022-07-30T19:15:23.610Z,1.00
2022-07-30T19:17:51.711Z,1.00
2022-07-30T19:20:19.890Z,1.00
2022-07-30T19:22:49.257Z,1.00
2022-07-30T19:25:19.451Z,1.00
2022-07-30T19:27:47.378Z,1.00
2022-07-30T19:30:15.447Z,1.00
2022-07-30T19:32:43.721Z,1.00
2022-07-30T19:35:14.453Z,32.00
2022-07-30T19:37:42.651Z,1.00
2022-07-30T19:40:13.405Z,1.00
2022-07-30T19:42:41.690Z,1.00
2022-07-30T19:45:12.170Z,1.00
2022-07-30T19:47:42.222Z,99.90
2022-07-30T19:50:11.570Z,1.00
2022-07-30T19:52:39.939Z,99.90
2022-07-30T19:55:35.103Z,99.90
2022-07-30T19:58:04.791Z,99.90
2022-07-30T20:00:44.541Z,1.00
2022-07-30T20:03:25.820Z,99.90
2022-07-30T20:06:07.601Z,1.00
2022-07-30T20:08:37.402Z,1.00
2022-07-30T20:11:08.282Z,1.00
2022-07-30T20:13:44.952Z,1.00
2022-07-30T20:16:14.645Z,1.00
2022-07-30T20:18:44.309Z,1.00
2022-07-30T20:21:15.442Z,1.00
2022-07-30T20:23:44.434Z,1.00
2022-07-30T20:26:15.763Z,1.00
2022-07-30T20:28:44.991Z,1.00
2022-07-30T20:31:13.834Z,1.00
2022-07-30T20:33:43.228Z,1.00
2022-07-30T20:36:18.246Z,1.00
2022-07-30T20:38:47.155Z,1.00
2022-07-30T20:41:16.883Z,1.00
2022-07-30T20:43:51.595Z,1.00
2022-07-30T20:46:23.228Z,1.00
2022-07-30T20:48:51.881Z,1.00
2022-07-30T20:51:19.933Z,1.00
2022-07-30T20:53:49.432Z,1.00
2022-07-30T20:56:20.104Z,1.00
2022-07-30T20:58:48.456Z,1.00
2022-07-30T21:01:17.821Z,1.00
2022-07-30T21:03:47.603Z,1.00
2022-07-30T21:06:16.720Z,1.00
2022-07-30T21:08:44.625Z,1.00
2022-07-30T21:11:13.378Z,1.00
2022-07-30T21:13:43.873Z,1.00
2022-07-30T21:16:16.198Z,1.00
2022-07-30T21:18:49.882Z,1.00
2022-07-30T21:21:29.283Z,1.00
2022-07-30T21:24:11.800Z,1.00
2022-07-30T21:26:41.411Z,1.00
2022-07-30T21:29:11.393Z,1.00
2022-07-30T21:32:01.770Z,1.00
2022-07-30T21:34:30.870Z,1.00
2022-07-30T21:37:03.297Z,1.00
2022-07-30T21:39:32.319Z,1.00
2022-07-30T21:42:08.371Z,1.00
2022-07-30T21:44:38.301Z,1.00
2022-07-30T21:47:10.174Z,1.00
2022-07-30T21:49:38.927Z,1.00
2022-07-30T21:52:08.371Z,1.00
2022-07-30T21:54:48.150Z,1.00
2022-07-30T21:57:23.294Z,1.00
2022-07-30T21:59:56.172Z,1.00
2022-07-30T22:02:24.839Z,1.00
2022-07-30T22:04:53.626Z,1.00
2022-07-30T22:07:22.247Z,1.00
2022-07-30T22:09:50.423Z,1.00
2022-07-30T22:12:18.737Z,1.00
2022-07-30T22:14:49.671Z,1.00
2022-07-30T22:17:23.820Z,1.00
2022-07-30T22:20:08.703Z,1.00
2022-07-30T22:22:39.720Z,1.00
2022-07-30T22:25:09.731Z,1.00
2022-07-30T22:27:39.833Z,1.00
2022-07-30T22:30:10.087Z,1.00
2022-07-30T22:32:39.459Z,4.70
2022-07-30T22:35:08.439Z,1.00
2022-07-30T22:37:38.115Z,1.00
2022-07-30T22:40:07.888Z,1.00
2022-07-30T22:42:49.697Z,10.10
2022-07-30T22:45:34.003Z,1.00
2022-07-30T22:48:10.915Z,20.40
2022-07-30T22:54:11.733Z,32.00
2022-07-30T22:56:15.715Z,52.10
2022-07-30T22:58:44.413Z,71.80
2022-07-30T23:01:12.304Z,66.10
2022-07-30T23:03:42.178Z,50.30
2022-07-30T23:06:14.748Z,85.40
2022-07-30T23:08:44.247Z,85.60
2022-07-30T23:11:12.173Z,29.40
2022-07-30T23:12:34.405Z,32.20
2022-07-30T23:13:40.266Z,95.50
2022-07-30T23:16:08.192Z,63.00
2022-07-30T23:18:36.229Z,71.50
2022-07-30T23:21:05.664Z,90.50
2022-07-30T23:23:35.580Z,69.60
2022-07-30T23:26:03.857Z,89.60
2022-07-30T23:28:31.957Z,96.70
2022-07-30T23:31:00.150Z,99.90
2022-07-30T23:33:28.106Z,99.90
2022-07-30T23:35:56.603Z,67.70
2022-07-30T23:38:25.990Z,99.90
2022-07-30T23:40:54.171Z,99.90
2022-07-30T23:43:22.202Z,95.90
2022-07-30T23:45:50.084Z,99.90
2022-07-30T23:48:17.969Z,99.90
2022-07-30T23:50:45.908Z,99.90
2022-07-30T23:53:13.797Z,99.90
2022-07-30T23:55:46.369Z,99.90
2022-07-30T23:58:14.362Z,99.90
